Time;durP1;ratioP1;P1;durP2;ratioP2;P2;SDS_P1;SDS_P2;PMS_P1;PMS_P2;Temp;Humidity;BMP_temperature;BMP_pressure;BME280_temperature;BME280_humidity;BME280_pressure;Samples;Min_cycle;Max_cycle;Signal;HPM_P1;HPM_P2
2021/05/16 00:00:13;;;;;;;14.45;11.77;;;;;;;;;;5016768;28;20014;-93
2021/05/16 00:02:39;;;;;;;13.15;11.77;;;;;;;;;;5017874;28;20021;-94
2021/05/16 00:05:06;;;;;;;13.00;11.77;;;;;;;;;;5012781;28;20478;-94
2021/05/16 00:07:32;;;;;;;12.85;11.65;;;;;;;;;;5041741;28;20045;-93
2021/05/16 00:09:58;;;;;;;13.35;11.93;;;;;;;;;;5041446;28;20045;-92
2021/05/16 00:12:24;;;;;;;15.13;11.50;;;;;;;;;;5041234;28;20105;-92
2021/05/16 00:14:50;;;;;;;14.52;13.02;;;;;;;;;;5041250;28;20044;-92
2021/05/16 00:17:16;;;;;;;16.35;12.00;;;;;;;;;;5041506;28;20025;-92
2021/05/16 00:19:42;;;;;;;13.85;12.45;;;;;;;;;;5041320;28;20021;-90
2021/05/16 00:22:09;;;;;;;14.07;12.77;;;;;;;;;;5041035;28;20112;-91
2021/05/16 00:24:35;;;;;;;13.45;12.15;;;;;;;;;;5041129;28;20017;-91
2021/05/16 00:27:01;;;;;;;13.70;12.30;;;;;;;;;;5040487;28;20057;-91
2021/05/16 00:29:27;;;;;;;16.65;12.30;;;;;;;;;;5021936;28;20036;-91
2021/05/16 00:31:53;;;;;;;13.45;12.02;;;;;;;;;;5039763;28;20022;-91
2021/05/16 00:34:19;;;;;;;15.25;13.38;;;;;;;;;;5039958;28;20032;-93
2021/05/16 00:36:45;;;;;;;15.70;13.38;;;;;;;;;;5039823;28;20482;-95
2021/05/16 00:39:11;;;;;;;16.27;14.55;;;;;;;;;;5022229;28;20030;-92
2021/05/16 00:41:37;;;;;;;19.33;14.27;;;;;;;;;;5039842;28;20046;-93
2021/05/16 00:44:03;;;;;;;17.55;13.75;;;;;;;;;;5039529;28;20026;-94
2021/05/16 00:46:30;;;;;;;15.73;13.77;;;;;;;;;;5039667;28;20029;-92
2021/05/16 00:48:56;;;;;;;16.40;13.88;;;;;;;;;;5039376;28;20316;-91
2021/05/16 00:51:22;;;;;;;16.30;14.60;;;;;;;;;;5039428;28;20021;-91
2021/05/16 00:53:48;;;;;;;14.90;13.38;;;;;;;;;;5039399;28;20029;-91
2021/05/16 00:56:15;;;;;;;15.73;13.65;;;;;;;;;;5021897;28;20041;-91
2021/05/16 00:58:41;;;;;;;15.82;14.23;;;;;;;;;;5039370;28;20075;-90
2021/05/16 01:01:09;;;;;;;17.90;14.55;;;;;;;;;;5039502;28;20159;-89
2021/05/16 01:03:37;;;;;;;16.05;13.35;;;;;;;;;;5021830;28;20104;-89
2021/05/16 01:06:03;;;;;;;15.70;14.10;;;;;;;;;;5039359;28;20094;-90
2021/05/16 01:08:29;;;;;;;15.48;13.48;;;;;;;;;;5038903;28;20021;-89
2021/05/16 01:10:55;;;;;;;18.63;14.82;;;;;;;;;;5039080;28;20026;-90
2021/05/16 01:13:21;;;;;;;18.75;14.00;;;;;;;;;;5039282;28;20026;-90
2021/05/16 01:15:48;;;;;;;16.38;13.60;;;;;;;;;;5039001;28;20029;-93
2021/05/16 01:18:14;;;;;;;15.55;13.40;;;;;;;;;;5038591;28;20033;-89
2021/05/16 01:20:42;;;;;;;15.02;13.60;;;;;;;;;;5038849;28;20025;-89
2021/05/16 01:23:09;;;;;;;15.98;13.63;;;;;;;;;;5021568;28;20419;-92
2021/05/16 01:25:37;;;;;;;16.73;13.00;;;;;;;;;;5021345;28;20056;-90
2021/05/16 01:28:04;;;;;;;16.93;12.67;;;;;;;;;;4997198;28;1219377;-89
2021/05/16 01:30:30;;;;;;;14.30;12.80;;;;;;;;;;5022581;28;20279;-87
2021/05/16 01:32:56;;;;;;;14.65;13.13;;;;;;;;;;5039948;28;20168;-91
2021/05/16 01:35:23;;;;;;;15.70;12.77;;;;;;;;;;5022473;28;20025;-92
2021/05/16 01:37:49;;;;;;;14.88;13.07;;;;;;;;;;5039740;28;20021;-91
2021/05/16 01:40:16;;;;;;;15.10;13.05;;;;;;;;;;5039748;28;20041;-91
2021/05/16 01:42:53;;;;;;;15.30;13.55;;;;;;;;;;5039691;28;20018;-90
2021/05/16 01:45:23;;;;;;;16.80;13.57;;;;;;;;;;5022227;28;20049;-89
2021/05/16 01:47:49;;;;;;;15.32;13.73;;;;;;;;;;5039536;28;20049;-93
2021/05/16 01:50:17;;;;;;;15.98;14.30;;;;;;;;;;5039606;28;20025;-94
2021/05/16 01:52:45;;;;;;;14.73;13.23;;;;;;;;;;5039614;28;20109;-89
2021/05/16 01:55:11;;;;;;;16.13;13.45;;;;;;;;;;5039319;28;20032;-88
2021/05/16 01:57:38;;;;;;;15.30;13.80;;;;;;;;;;5021938;28;20489;-88
2021/05/16 02:00:06;;;;;;;16.95;13.23;;;;;;;;;;5021872;28;20022;-90
2021/05/16 02:02:32;;;;;;;16.80;13.23;;;;;;;;;;5021928;28;20021;-91
2021/05/16 02:04:59;;;;;;;15.73;14.15;;;;;;;;;;5039120;28;20037;-91
2021/05/16 02:07:25;;;;;;;33.28;14.60;;;;;;;;;;5039244;28;20026;-91
2021/05/16 02:09:51;;;;;;;16.23;13.65;;;;;;;;;;5039103;28;20096;-91
2021/05/16 02:12:18;;;;;;;15.25;13.73;;;;;;;;;;5039239;28;20037;-90
2021/05/16 02:14:45;;;;;;;17.00;14.20;;;;;;;;;;5039100;28;20029;-90
2021/05/16 02:17:12;;;;;;;17.75;14.63;;;;;;;;;;5021673;28;20025;-92
2021/05/16 02:19:38;;;;;;;16.65;14.10;;;;;;;;;;5021708;28;20025;-92
2021/05/16 02:22:04;;;;;;;15.25;13.75;;;;;;;;;;5021615;28;20033;-91
2021/05/16 02:24:31;;;;;;;16.88;14.98;;;;;;;;;;5038884;28;20017;-92
2021/05/16 02:27:00;;;;;;;19.27;15.55;;;;;;;;;;5020800;28;20061;-91
2021/05/16 02:29:30;;;;;;;18.58;15.35;;;;;;;;;;5038700;28;20431;-90
2021/05/16 02:31:57;;;;;;;19.15;14.43;;;;;;;;;;5038970;28;20112;-91
2021/05/16 02:34:23;;;;;;;16.48;14.20;;;;;;;;;;5038844;28;20034;-91
2021/05/16 02:36:49;;;;;;;16.75;14.30;;;;;;;;;;5038525;28;20112;-90
2021/05/16 02:39:15;;;;;;;16.95;14.48;;;;;;;;;;5021117;28;20018;-88
2021/05/16 02:41:41;;;;;;;15.82;14.23;;;;;;;;;;5038415;28;20032;-88
2021/05/16 02:44:08;;;;;;;18.50;14.73;;;;;;;;;;5038686;28;20063;-92
2021/05/16 02:46:34;;;;;;;16.13;13.02;;;;;;;;;;5038712;28;20104;-90
2021/05/16 02:49:00;;;;;;;15.90;13.48;;;;;;;;;;5038619;28;20025;-96
2021/05/16 02:51:26;;;;;;;17.25;12.95;;;;;;;;;;5038475;28;20030;-92
2021/05/16 02:53:52;;;;;;;14.85;12.32;;;;;;;;;;5038409;28;20070;-92
2021/05/16 02:56:18;;;;;;;13.20;11.80;;;;;;;;;;5038316;28;20034;-91
2021/05/16 02:58:45;;;;;;;15.25;12.43;;;;;;;;;;5021039;28;20021;-91
2021/05/16 03:01:11;;;;;;;12.98;10.98;;;;;;;;;;5038135;28;20022;-90
2021/05/16 03:03:40;;;;;;;13.30;11.95;;;;;;;;;;5038253;28;20079;-90
2021/05/16 03:06:07;;;;;;;12.70;11.40;;;;;;;;;;5038110;28;20091;-88
2021/05/16 03:08:33;;;;;;;12.63;11.30;;;;;;;;;;5038115;28;20048;-88
2021/05/16 03:10:59;;;;;;;16.08;11.10;;;;;;;;;;5038295;28;20028;-87
2021/05/16 03:13:25;;;;;;;13.02;11.63;;;;;;;;;;5038066;28;20033;-87
2021/05/16 03:15:51;;;;;;;14.60;12.10;;;;;;;;;;5037913;28;20025;-87
2021/05/16 03:18:18;;;;;;;14.38;11.98;;;;;;;;;;5038061;28;20049;-90
2021/05/16 03:20:44;;;;;;;15.63;13.10;;;;;;;;;;5020562;28;20033;-89
2021/05/16 03:23:10;;;;;;;15.70;12.55;;;;;;;;;;5037835;28;20026;-88
2021/05/16 03:25:36;;;;;;;15.13;13.52;;;;;;;;;;5020298;28;20030;-90
2021/05/16 03:28:05;;;;;;;17.00;13.55;;;;;;;;;;5037555;28;20053;-89
2021/05/16 03:30:31;;;;;;;17.13;13.65;;;;;;;;;;5038082;28;20049;-88
2021/05/16 03:32:57;;;;;;;15.20;12.90;;;;;;;;;;5037637;28;20032;-89
2021/05/16 03:35:43;;;;;;;19.08;15.13;;;;;;;;;;5037905;28;20026;-87
2021/05/16 03:38:09;;;;;;;15.65;12.18;;;;;;;;;;5037450;28;20412;-88
2021/05/16 03:40:35;;;;;;;13.93;11.98;;;;;;;;;;5037800;28;20312;-88
2021/05/16 03:43:01;;;;;;;14.52;11.63;;;;;;;;;;5020068;28;20112;-89
2021/05/16 03:45:28;;;;;;;13.52;11.48;;;;;;;;;;5037655;28;20029;-90
2021/05/16 03:47:54;;;;;;;14.43;12.77;;;;;;;;;;5037571;28;20404;-86
2021/05/16 03:50:20;;;;;;;14.80;13.05;;;;;;;;;;5020149;28;20034;-86
2021/05/16 03:52:46;;;;;;;16.77;13.10;;;;;;;;;;5037356;28;20025;-87
2021/05/16 03:55:12;;;;;;;14.48;12.60;;;;;;;;;;5037590;28;20029;-86
2021/05/16 03:57:38;;;;;;;15.40;12.90;;;;;;;;;;5037610;28;20032;-87
2021/05/16 04:00:05;;;;;;;19.45;13.23;;;;;;;;;;5037030;28;20022;-86
2021/05/16 04:02:31;;;;;;;18.77;14.10;;;;;;;;;;5037318;28;20104;-86
2021/05/16 04:04:57;;;;;;;18.00;14.95;;;;;;;;;;5037229;28;20029;-86
2021/05/16 04:07:23;;;;;;;19.15;14.18;;;;;;;;;;5037254;28;20026;-86
2021/05/16 04:09:50;;;;;;;15.80;12.38;;;;;;;;;;5037463;28;20040;-87
2021/05/16 04:12:16;;;;;;;13.82;12.00;;;;;;;;;;5037370;28;20030;-89
2021/05/16 04:14:44;;;;;;;15.88;12.05;;;;;;;;;;5019446;28;20124;-89
2021/05/16 04:17:10;;;;;;;14.73;12.70;;;;;;;;;;5037264;28;20029;-88
2021/05/16 04:19:36;;;;;;;13.07;11.75;;;;;;;;;;5037202;28;20404;-90
2021/05/16 04:22:02;;;;;;;13.05;11.63;;;;;;;;;;5037406;28;20030;-88
2021/05/16 04:24:29;;;;;;;13.88;11.88;;;;;;;;;;5037276;28;20042;-88
2021/05/16 04:26:55;;;;;;;13.52;12.02;;;;;;;;;;5037150;28;20073;-88
2021/05/16 04:29:21;;;;;;;15.02;12.75;;;;;;;;;;5037453;28;20045;-88
2021/05/16 04:31:47;;;;;;;15.98;12.63;;;;;;;;;;5037655;28;20028;-94
2021/05/16 04:34:13;;;;;;;16.20;14.25;;;;;;;;;;5037210;28;20069;-95
2021/05/16 04:36:39;;;;;;;15.00;13.57;;;;;;;;;;5037029;28;20030;-90
2021/05/16 04:39:06;;;;;;;18.55;15.68;;;;;;;;;;5036993;28;20061;-89
2021/05/16 04:41:35;;;;;;;15.98;14.25;;;;;;;;;;5037210;28;20022;-88
2021/05/16 04:44:01;;;;;;;15.85;14.10;;;;;;;;;;5019588;28;20117;-88
2021/05/16 04:46:27;;;;;;;18.70;14.93;;;;;;;;;;5019348;28;20040;-88
2021/05/16 04:48:54;;;;;;;20.80;15.15;;;;;;;;;;5037118;28;20120;-88
2021/05/16 04:51:20;;;;;;;16.92;14.63;;;;;;;;;;5040637;28;20029;-88
2021/05/16 04:53:46;;;;;;;20.23;14.98;;;;;;;;;;5040626;28;20025;-87
2021/05/16 04:56:12;;;;;;;21.83;15.85;;;;;;;;;;5040430;28;20071;-89
2021/05/16 04:58:38;;;;;;;18.38;16.25;;;;;;;;;;5023111;28;20026;-90
2021/05/16 05:01:05;;;;;;;20.13;16.17;;;;;;;;;;5040444;28;20025;-91
2021/05/16 05:03:31;;;;;;;21.38;17.02;;;;;;;;;;5040546;28;20018;-91
2021/05/16 05:05:57;;;;;;;24.73;16.38;;;;;;;;;;5022985;28;20039;-87
2021/05/16 05:08:25;;;;;;;20.20;15.07;;;;;;;;;;5040541;28;20034;-90
2021/05/16 05:10:51;;;;;;;19.20;15.77;;;;;;;;;;5023077;28;20045;-89
2021/05/16 05:13:17;;;;;;;18.95;15.77;;;;;;;;;;5040442;28;20352;-90
2021/05/16 05:15:43;;;;;;;38.50;33.08;;;;;;;;;;5040220;28;20025;-90
2021/05/16 05:18:09;;;;;;;56.63;46.92;;;;;;;;;;5040442;28;20033;-89
2021/05/16 05:20:35;;;;;;;28.20;24.95;;;;;;;;;;5022038;28;20037;-88
2021/05/16 05:23:02;;;;;;;23.80;21.27;;;;;;;;;;5039970;28;20319;-87
2021/05/16 05:25:28;;;;;;;19.10;16.92;;;;;;;;;;5039975;28;20316;-89
2021/05/16 05:27:55;;;;;;;16.60;14.80;;;;;;;;;;5022466;28;20041;-88
2021/05/16 05:30:22;;;;;;;15.40;13.90;;;;;;;;;;5039986;28;20430;-89
2021/05/16 05:32:48;;;;;;;18.17;14.02;;;;;;;;;;5039772;28;20029;-88
2021/05/16 05:35:14;;;;;;;16.42;12.70;;;;;;;;;;5039006;28;20067;-89
2021/05/16 05:37:40;;;;;;;12.75;11.40;;;;;;;;;;5021799;28;20029;-88
2021/05/16 05:40:06;;;;;;;15.57;10.82;;;;;;;;;;5038231;28;20028;-88
2021/05/16 05:42:32;;;;;;;11.25;9.45;;;;;;;;;;5019845;28;20408;-87
2021/05/16 05:44:59;;;;;;;11.25;9.45;;;;;;;;;;5002575;28;20037;-87
2021/05/16 05:47:25;;;;;;;8.10;7.25;;;;;;;;;;5021852;28;20397;-90
2021/05/16 05:49:52;;;;;;;8.15;7.32;;;;;;;;;;5039845;28;20060;-85
2021/05/16 05:52:33;;;;;;;10.77;7.30;;;;;;;;;;5039763;28;20017;-87
2021/05/16 05:54:59;;;;;;;13.95;7.70;;;;;;;;;;5037101;28;20072;-80
2021/05/16 05:57:25;;;;;;;10.98;7.97;;;;;;;;;;5038553;28;20301;-89
2021/05/16 05:59:51;;;;;;;11.65;6.90;;;;;;;;;;5033485;28;20358;-80
2021/05/16 06:02:17;;;;;;;9.98;8.27;;;;;;;;;;5020008;28;20034;-76
2021/05/16 06:04:43;;;;;;;10.95;7.93;;;;;;;;;;5038732;28;20071;-76
2021/05/16 06:07:09;;;;;;;13.63;8.48;;;;;;;;;;5038188;28;20022;-76
2021/05/16 06:09:37;;;;;;;11.55;7.53;;;;;;;;;;5038769;28;20052;-76
2021/05/16 06:12:05;;;;;;;9.48;7.90;;;;;;;;;;5038490;28;20026;-76
2021/05/16 06:14:32;;;;;;;12.75;8.30;;;;;;;;;;5038726;28;20060;-76
2021/05/16 06:16:58;;;;;;;8.55;6.40;;;;;;;;;;5038151;28;20021;-76
2021/05/16 06:19:24;;;;;;;8.18;5.93;;;;;;;;;;5038632;28;20026;-76
2021/05/16 06:21:50;;;;;;;9.10;5.25;;;;;;;;;;5038273;28;20021;-76
2021/05/16 06:24:16;;;;;;;8.82;7.30;;;;;;;;;;5038245;28;20029;-76
2021/05/16 06:26:42;;;;;;;8.48;6.75;;;;;;;;;;5020745;28;20312;-76
2021/05/16 06:29:12;;;;;;;11.65;6.75;;;;;;;;;;5038229;28;20104;-76
2021/05/16 06:31:38;;;;;;;7.82;4.78;;;;;;;;;;5038180;28;20037;-76
2021/05/16 06:34:04;;;;;;;6.53;2.72;;;;;;;;;;5038235;28;20297;-76
2021/05/16 06:36:31;;;;;;;7.05;4.32;;;;;;;;;;5037926;28;20415;-76
2021/05/16 06:38:57;;;;;;;9.90;4.38;;;;;;;;;;5038036;28;20108;-76
2021/05/16 06:41:23;;;;;;;9.45;5.85;;;;;;;;;;5037771;28;20021;-76
2021/05/16 06:43:50;;;;;;;8.32;6.72;;;;;;;;;;5038111;28;20022;-76
2021/05/16 06:46:16;;;;;;;9.18;4.90;;;;;;;;;;5038101;28;20022;-76
2021/05/16 06:48:42;;;;;;;6.68;3.55;;;;;;;;;;5037881;28;20113;-76
2021/05/16 06:51:09;;;;;;;4.50;2.63;;;;;;;;;;5037802;28;20029;-76
2021/05/16 06:53:35;;;;;;;3.83;2.55;;;;;;;;;;5037911;28;20052;-76
2021/05/16 06:56:01;;;;;;;3.75;2.50;;;;;;;;;;5037563;28;20045;-76
2021/05/16 06:58:28;;;;;;;7.13;2.90;;;;;;;;;;5020055;28;20028;-76
2021/05/16 07:00:54;;;;;;;6.82;3.80;;;;;;;;;;5037855;28;20027;-76
2021/05/16 07:03:21;;;;;;;6.90;4.80;;;;;;;;;;5037552;28;20021;-76
2021/05/16 07:05:47;;;;;;;8.65;5.13;;;;;;;;;;5019818;28;20029;-76
2021/05/16 07:08:13;;;;;;;8.80;4.47;;;;;;;;;;5019769;28;20065;-76
2021/05/16 07:10:39;;;;;;;6.72;3.72;;;;;;;;;;5037611;28;20042;-76
2021/05/16 07:13:05;;;;;;;4.32;2.80;;;;;;;;;;5037076;28;20029;-76
2021/05/16 07:15:31;;;;;;;3.58;2.20;;;;;;;;;;5037348;28;20423;-76
2021/05/16 07:17:57;;;;;;;6.78;3.30;;;;;;;;;;5037320;28;20017;-76
2021/05/16 07:20:23;;;;;;;7.25;3.95;;;;;;;;;;5035844;28;20067;-76
2021/05/16 07:22:50;;;;;;;4.05;2.40;;;;;;;;;;5037308;28;20075;-77
2021/05/16 07:25:17;;;;;;;3.95;2.53;;;;;;;;;;5036775;28;20274;-76
2021/05/16 07:27:44;;;;;;;4.38;2.30;;;;;;;;;;5037055;28;20475;-76
2021/05/16 07:30:10;;;;;;;3.78;2.30;;;;;;;;;;5037372;28;20100;-76
2021/05/16 07:32:36;;;;;;;3.15;1.75;;;;;;;;;;5037312;28;20036;-76
2021/05/16 07:35:02;;;;;;;2.20;1.42;;;;;;;;;;5036916;28;20017;-76
2021/05/16 07:37:28;;;;;;;2.53;1.60;;;;;;;;;;5036950;28;20029;-76
2021/05/16 07:39:55;;;;;;;4.35;1.92;;;;;;;;;;5037026;28;20101;-76
2021/05/16 07:42:22;;;;;;;4.00;1.92;;;;;;;;;;5036765;28;20295;-76
2021/05/16 07:44:48;;;;;;;3.65;1.45;;;;;;;;;;5037127;28;20024;-76
2021/05/16 07:47:14;;;;;;;2.55;1.75;;;;;;;;;;5037119;28;20026;-76
2021/05/16 07:49:40;;;;;;;2.20;1.60;;;;;;;;;;5037084;28;20060;-76
2021/05/16 07:52:06;;;;;;;5.45;2.75;;;;;;;;;;5036869;28;20025;-76
2021/05/16 07:54:32;;;;;;;7.60;3.70;;;;;;;;;;5036892;28;20032;-76
2021/05/16 07:56:58;;;;;;;8.35;4.90;;;;;;;;;;5036978;28;20483;-76
2021/05/16 07:59:25;;;;;;;23.38;13.68;;;;;;;;;;5036903;28;20423;-76
2021/05/16 08:01:51;;;;;;;15.15;9.18;;;;;;;;;;5019365;28;20064;-76
2021/05/16 08:04:17;;;;;;;8.45;4.60;;;;;;;;;;5036464;28;20026;-76
2021/05/16 08:06:43;;;;;;;6.53;4.40;;;;;;;;;;5036734;28;20116;-76
2021/05/16 08:09:09;;;;;;;3.70;3.13;;;;;;;;;;5036587;28;20037;-76
2021/05/16 08:11:36;;;;;;;5.03;3.08;;;;;;;;;;5019201;28;20034;-76
2021/05/16 08:14:02;;;;;;;7.57;5.80;;;;;;;;;;5036521;28;20025;-75
2021/05/16 08:16:30;;;;;;;4.90;3.00;;;;;;;;;;5036609;28;20029;-76
2021/05/16 08:18:56;;;;;;;7.25;2.92;;;;;;;;;;5036811;28;20033;-76
2021/05/16 08:21:22;;;;;;;3.53;2.20;;;;;;;;;;5019134;28;20037;-77
2021/05/16 08:23:48;;;;;;;5.65;2.00;;;;;;;;;;5036582;28;20370;-76
2021/05/16 08:26:14;;;;;;;4.55;2.15;;;;;;;;;;5040029;28;20040;-76
2021/05/16 08:28:40;;;;;;;4.28;2.78;;;;;;;;;;5040728;28;20029;-76
2021/05/16 08:31:06;;;;;;;4.32;1.95;;;;;;;;;;5040696;28;20029;-76
2021/05/16 08:33:32;;;;;;;3.28;1.58;;;;;;;;;;5040470;28;20026;-76
2021/05/16 08:35:58;;;;;;;2.15;1.60;;;;;;;;;;5040178;28;20030;-76
2021/05/16 08:38:25;;;;;;;2.55;1.73;;;;;;;;;;5040342;28;20060;-76
2021/05/16 08:40:51;;;;;;;6.75;3.70;;;;;;;;;;5040170;28;20067;-76
2021/05/16 08:43:17;;;;;;;5.13;3.17;;;;;;;;;;5040258;28;20151;-76
2021/05/16 08:45:43;;;;;;;6.88;4.53;;;;;;;;;;5022729;28;20025;-76
2021/05/16 08:48:09;;;;;;;2.50;1.88;;;;;;;;;;5040151;28;20028;-76
2021/05/16 08:50:35;;;;;;;4.50;2.67;;;;;;;;;;5022525;28;20045;-76
2021/05/16 08:53:01;;;;;;;5.50;2.40;;;;;;;;;;5040090;28;20021;-76
2021/05/16 08:55:28;;;;;;;10.60;3.05;;;;;;;;;;5022411;28;20351;-76
2021/05/16 08:57:54;;;;;;;4.00;2.30;;;;;;;;;;5040050;28;20017;-76
2021/05/16 09:00:26;;;;;;;4.40;2.97;;;;;;;;;;5022435;28;20116;-76
2021/05/16 09:02:52;;;;;;;;;;;;;;;;;;5040025;28;20108;-76
2021/05/16 09:05:25;;;;;;;9.77;7.60;;;;;;;;;;5039720;28;19948;-76
2021/05/16 09:07:58;;;;;;;9.38;6.07;;;;;;;;;;5039691;28;20399;-76
2021/05/16 09:10:24;;;;;;;6.88;4.22;;;;;;;;;;5022190;28;20033;-76
2021/05/16 09:12:50;;;;;;;7.47;5.63;;;;;;;;;;5039615;28;20021;-76
2021/05/16 09:15:20;;;;;;;3.90;2.42;;;;;;;;;;5039634;28;20285;-76
2021/05/16 09:17:51;;;;;;;17.55;9.57;;;;;;;;;;5039743;28;20046;-76
2021/05/16 09:20:23;;;;;;;11.63;7.72;;;;;;;;;;5022252;28;20018;-76
2021/05/16 09:22:49;;;;;;;11.07;8.35;;;;;;;;;;5039658;28;20029;-76
2021/05/16 09:25:17;;;;;;;8.95;7.07;;;;;;;;;;5039384;28;20293;-76
2021/05/16 09:27:53;;;;;;;8.63;5.80;;;;;;;;;;5039131;28;20060;-76
2021/05/16 09:30:20;;;;;;;6.00;2.90;;;;;;;;;;5039461;28;20100;-76
2021/05/16 09:32:46;;;;;;;4.72;2.50;;;;;;;;;;5039424;28;20075;-76
2021/05/16 09:35:13;;;;;;;5.10;4.00;;;;;;;;;;5038928;28;20030;-76
2021/05/16 09:37:54;;;;;;;2.45;1.65;;;;;;;;;;5039400;28;20071;-76
2021/05/16 09:40:24;;;;;;;3.47;2.10;;;;;;;;;;5039410;28;20032;-76
2021/05/16 09:43:09;;;;;;;18.73;12.82;;;;;;;;;;5039254;28;20100;-76
2021/05/16 09:45:52;;;;;;;4.90;2.88;;;;;;;;;;5021173;28;20116;-76
2021/05/16 09:48:28;;;;;;;2.78;1.80;;;;;;;;;;5039291;28;20029;-76
2021/05/16 09:51:07;;;;;;;2.45;1.85;;;;;;;;;;5021416;28;20022;-76
2021/05/16 09:53:33;;;;;;;2.63;1.60;;;;;;;;;;5039028;28;20053;-76
2021/05/16 09:56:20;;;;;;;3.60;2.22;;;;;;;;;;5038351;28;20427;-76
2021/05/16 09:58:46;;;;;;;3.42;2.20;;;;;;;;;;5038719;28;20033;-76
2021/05/16 10:01:14;;;;;;;7.25;5.63;;;;;;;;;;5021240;28;20037;-76
2021/05/16 10:03:40;;;;;;;4.72;1.83;;;;;;;;;;5021509;28;20021;-76
2021/05/16 10:06:06;;;;;;;11.73;5.32;;;;;;;;;;5038493;28;20442;-76
2021/05/16 10:08:33;;;;;;;8.65;5.47;;;;;;;;;;5038544;28;20025;-76
2021/05/16 10:11:00;;;;;;;12.45;8.10;;;;;;;;;;5038035;28;20032;-76
2021/05/16 10:13:30;;;;;;;17.73;13.35;;;;;;;;;;5038554;28;20054;-76
2021/05/16 10:15:58;;;;;;;3.88;2.08;;;;;;;;;;5038302;28;20032;-76
2021/05/16 10:18:25;;;;;;;3.38;1.42;;;;;;;;;;5021118;28;20025;-78
2021/05/16 10:20:52;;;;;;;3.72;1.50;;;;;;;;;;5038263;28;20166;-76
2021/05/16 10:23:31;;;;;;;2.85;1.23;;;;;;;;;;5020894;28;20033;-76
2021/05/16 10:26:14;;;;;;;4.25;2.00;;;;;;;;;;5038447;28;20046;-75
2021/05/16 10:28:54;;;;;;;8.70;2.88;;;;;;;;;;5038013;28;20045;-76
2021/05/16 10:31:41;;;;;;;5.43;2.30;;;;;;;;;;5038318;28;20033;-76
2021/05/16 10:34:26;;;;;;;8.93;5.95;;;;;;;;;;5020559;28;20022;-76
2021/05/16 10:36:52;;;;;;;32.88;23.08;;;;;;;;;;5038022;28;20025;-76
2021/05/16 10:39:57;;;;;;;8.25;4.82;;;;;;;;;;5038278;28;20317;-76
2021/05/16 10:42:24;;;;;;;7.82;5.10;;;;;;;;;;4957990;28;20110;-76
2021/05/16 10:45:09;;;;;;;14.15;9.05;;;;;;;;;;4957941;28;20030;-76
2021/05/16 10:47:50;;;;;;;17.08;11.48;;;;;;;;;;4957446;28;20039;-76
2021/05/16 10:50:22;;;;;;;8.52;5.38;;;;;;;;;;4958005;28;20027;-76
2021/05/16 10:52:48;;;;;;;;;;;;;;;;;;4958314;28;20039;-76
2021/05/16 10:55:25;;;;;;;130.50;71.68;;;;;;;;;;4957714;28;20337;-75
2021/05/16 10:57:51;;;;;;;19.90;11.63;;;;;;;;;;4957884;29;20067;-76
2021/05/16 11:00:27;;;;;;;36.45;18.23;;;;;;;;;;4957712;28;20035;-75
2021/05/16 11:03:00;;;;;;;62.15;33.17;;;;;;;;;;4957452;29;20027;-76
2021/05/16 11:05:51;;;;;;;86.00;49.70;;;;;;;;;;4957421;28;20033;-77
2021/05/16 11:08:17;;;;;;;64.45;39.60;;;;;;;;;;4900188;29;20029;-76
2021/05/16 11:10:51;;;;;;;33.78;18.52;;;;;;;;;;4884937;29;20081;-76
2021/05/16 11:13:32;;;;;;;31.35;18.35;;;;;;;;;;4944538;28;20255;-76
2021/05/16 11:16:03;;;;;;;85.20;52.08;;;;;;;;;;4976574;28;20138;-76
2021/05/16 11:18:29;;;;;;;64.47;39.00;;;;;;;;;;4976692;28;20286;-76
2021/05/16 11:20:57;;;;;;;60.35;34.20;;;;;;;;;;4976351;28;20023;-76
2021/05/16 11:23:26;;;;;;;64.53;37.20;;;;;;;;;;4976829;28;20352;-76
2021/05/16 11:25:55;;;;;;;74.10;45.55;;;;;;;;;;4976483;28;20051;-76
2021/05/16 11:28:25;;;;;;;22.13;12.63;;;;;;;;;;4976491;28;20384;-76
2021/05/16 11:30:52;;;;;;;8.35;4.00;;;;;;;;;;4960314;28;20413;-76
2021/05/16 11:33:31;;;;;;;6.35;4.20;;;;;;;;;;4976597;28;20065;-76
2021/05/16 11:36:03;;;;;;;7.88;3.83;;;;;;;;;;4976447;28;20023;-76
2021/05/16 11:38:31;;;;;;;10.57;5.45;;;;;;;;;;4976493;28;20031;-76
2021/05/16 11:40:57;;;;;;;26.80;14.10;;;;;;;;;;4976505;28;20038;-76
2021/05/16 11:43:27;;;;;;;8.40;4.15;;;;;;;;;;4976440;28;20026;-77
2021/05/16 11:45:53;;;;;;;59.78;35.13;;;;;;;;;;5022292;28;20037;-76
2021/05/16 11:48:36;;;;;;;78.75;48.92;;;;;;;;;;5036760;28;20025;-76
2021/05/16 11:51:09;;;;;;;36.33;22.70;;;;;;;;;;5036809;28;20424;-76
2021/05/16 11:53:35;;;;;;;2.78;1.65;;;;;;;;;;5003152;28;20045;-76
2021/05/16 11:56:12;;;;;;;45.55;27.58;;;;;;;;;;5036848;28;20515;-76
2021/05/16 11:58:39;;;;;;;34.65;20.10;;;;;;;;;;5020243;28;20450;-76
2021/05/16 12:01:14;;;;;;;30.25;18.25;;;;;;;;;;5041142;28;20026;-76
2021/05/16 12:03:56;;;;;;;21.67;13.02;;;;;;;;;;5040976;28;20412;-76
2021/05/16 12:06:23;;;;;;;37.85;21.42;;;;;;;;;;5040796;28;20029;-76
2021/05/16 12:09:10;;;;;;;37.38;22.15;;;;;;;;;;5040486;28;20033;-76
2021/05/16 12:11:36;;;;;;;3.67;1.50;;;;;;;;;;5023409;28;20419;-76
2021/05/16 12:14:03;;;;;;;5.10;1.85;;;;;;;;;;5040863;28;20028;-76
2021/05/16 12:16:30;;;;;;;3.78;1.60;;;;;;;;;;5040499;28;20045;-76
2021/05/16 12:18:58;;;;;;;4.82;2.55;;;;;;;;;;5040712;28;20022;-76
2021/05/16 12:21:24;;;;;;;5.95;3.00;;;;;;;;;;5040824;28;20030;-76
2021/05/16 12:23:58;;;;;;;7.72;3.50;;;;;;;;;;5040587;28;20399;-76
2021/05/16 12:26:24;;;;;;;3.70;1.90;;;;;;;;;;5040198;28;20065;-76
2021/05/16 12:28:50;;;;;;;5.65;2.40;;;;;;;;;;5040550;28;20025;-76
2021/05/16 12:31:17;;;;;;;6.35;3.85;;;;;;;;;;5040551;28;20052;-76
2021/05/16 12:33:43;;;;;;;4.40;1.90;;;;;;;;;;5040413;28;20025;-76
2021/05/16 12:36:10;;;;;;;7.07;3.55;;;;;;;;;;5040086;28;20018;-76
2021/05/16 12:38:43;;;;;;;3.67;1.77;;;;;;;;;;5040625;28;20056;-76
2021/05/16 12:41:13;;;;;;;5.90;2.00;;;;;;;;;;5040339;28;20043;-76
2021/05/16 12:43:39;;;;;;;5.38;2.17;;;;;;;;;;5039953;28;20029;-76
2021/05/16 12:46:06;;;;;;;4.82;3.35;;;;;;;;;;5022908;28;20116;-76
2021/05/16 12:48:32;;;;;;;4.63;1.90;;;;;;;;;;5040093;28;20331;-76
2021/05/16 12:50:59;;;;;;;3.30;1.90;;;;;;;;;;5040365;28;20041;-76
2021/05/16 12:53:29;;;;;;;3.58;1.70;;;;;;;;;;5040253;28;20025;-76
2021/05/16 12:56:14;;;;;;;3.42;1.90;;;;;;;;;;5040139;28;20360;-76
2021/05/16 12:58:53;;;;;;;4.43;2.10;;;;;;;;;;5022313;28;20108;-76
2021/05/16 13:01:29;;;;;;;5.57;2.40;;;;;;;;;;5040366;28;20352;-76
2021/05/16 13:04:03;;;;;;;6.65;2.58;;;;;;;;;;5039837;28;20063;-76
2021/05/16 13:06:30;;;;;;;4.22;2.30;;;;;;;;;;5039575;28;20400;-76
2021/05/16 13:08:57;;;;;;;5.57;2.00;;;;;;;;;;5039817;28;20030;-77
2021/05/16 13:11:23;;;;;;;3.42;2.00;;;;;;;;;;5039117;28;20328;-76
2021/05/16 13:13:54;;;;;;;4.95;2.30;;;;;;;;;;5022261;28;20104;-76
2021/05/16 13:16:20;;;;;;;4.88;2.65;;;;;;;;;;5039485;28;20021;-76
2021/05/16 13:18:48;;;;;;;4.13;2.28;;;;;;;;;;5039837;28;20025;-76
2021/05/16 13:21:22;;;;;;;5.68;2.20;;;;;;;;;;5039574;28;20014;-76
2021/05/16 13:23:48;;;;;;;3.13;1.40;;;;;;;;;;5039672;28;20490;-76
2021/05/16 13:26:15;;;;;;;3.88;1.50;;;;;;;;;;5039452;28;20099;-76
2021/05/16 13:28:41;;;;;;;3.72;1.83;;;;;;;;;;5021998;28;20084;-76
2021/05/16 13:31:08;;;;;;;4.75;3.17;;;;;;;;;;5038959;28;20022;-76
2021/05/16 13:33:38;;;;;;;4.80;2.00;;;;;;;;;;5039398;28;20446;-76
2021/05/16 13:36:09;;;;;;;5.82;2.35;;;;;;;;;;5039392;28;20048;-76
2021/05/16 13:38:35;;;;;;;2.85;1.95;;;;;;;;;;5039131;28;20018;-76
2021/05/16 13:41:03;;;;;;;6.97;2.10;;;;;;;;;;5039183;28;20076;-76
2021/05/16 13:43:29;;;;;;;4.65;2.00;;;;;;;;;;5039214;28;20511;-76
2021/05/16 13:45:55;;;;;;;4.90;2.67;;;;;;;;;;5039079;28;20324;-76
2021/05/16 13:48:21;;;;;;;3.78;2.10;;;;;;;;;;5039238;28;20041;-76
2021/05/16 13:50:47;;;;;;;3.78;2.15;;;;;;;;;;5039173;28;20033;-76
2021/05/16 13:53:13;;;;;;;4.95;2.42;;;;;;;;;;5039015;28;20057;-76
2021/05/16 13:55:39;;;;;;;4.60;2.20;;;;;;;;;;5038828;28;20301;-76
2021/05/16 13:58:05;;;;;;;4.65;2.25;;;;;;;;;;5038970;28;20106;-76
2021/05/16 14:00:32;;;;;;;3.28;2.15;;;;;;;;;;5038874;28;20022;-76
2021/05/16 14:02:59;;;;;;;5.07;2.45;;;;;;;;;;5038900;28;20025;-76
2021/05/16 14:05:25;;;;;;;6.72;2.20;;;;;;;;;;5021430;28;20036;-76
2021/05/16 14:07:51;;;;;;;4.25;2.38;;;;;;;;;;5038750;28;20033;-76
2021/05/16 14:10:17;;;;;;;3.55;2.30;;;;;;;;;;5038373;28;20426;-76
2021/05/16 14:12:43;;;;;;;5.03;2.67;;;;;;;;;;5038529;28;20392;-76
2021/05/16 14:15:10;;;;;;;4.68;2.60;;;;;;;;;;5038767;28;20068;-76
2021/05/16 14:17:36;;;;;;;3.60;2.40;;;;;;;;;;5038620;28;20037;-76
2021/05/16 14:20:03;;;;;;;6.10;2.50;;;;;;;;;;5038709;28;20025;-76
2021/05/16 14:22:29;;;;;;;6.18;2.50;;;;;;;;;;5037417;28;20022;-76
2021/05/16 14:24:55;;;;;;;6.97;2.22;;;;;;;;;;5038207;28;20021;-76
2021/05/16 14:27:22;;;;;;;5.35;3.60;;;;;;;;;;5038179;28;20056;-76
2021/05/16 14:29:49;;;;;;;3.53;2.50;;;;;;;;;;5038267;28;20060;-76
2021/05/16 14:32:16;;;;;;;5.32;3.60;;;;;;;;;;5038333;28;20026;-76
2021/05/16 14:34:42;;;;;;;3.90;2.50;;;;;;;;;;5038087;28;20408;-77